sensor_id;sensor_type;location;lat;lon;timestamp;P1;durP1;ratioP1;P2;durP2;ratioP2
3000;SDS011;1510;51.072;6.678;2022-09-01T00:00:39;8.90;;;3.07;;
3000;SDS011;1510;51.072;6.678;2022-09-01T00:03:13;8.30;;;2.33;;
3000;SDS011;1510;51.072;6.678;2022-09-01T00:05:40;8.20;;;2.50;;
3000;SDS011;1510;51.072;6.678;2022-09-01T00:08:08;5.57;;;2.00;;
3000;SDS011;1510;51.072;6.678;2022-09-01T00:10:35;5.70;;;2.57;;
3000;SDS011;1510;51.072;6.678;2022-09-01T00:13:02;6.27;;;3.37;;
3000;SDS011;1510;51.072;6.678;2022-09-01T00:15:31;5.10;;;2.50;;
3000;SDS011;1510;51.072;6.678;2022-09-01T00:17:59;5.90;;;2.23;;
3000;SDS011;1510;51.072;6.678;2022-09-01T00:20:26;6.83;;;3.20;;
3000;SDS011;1510;51.072;6.678;2022-09-01T00:22:53;6.93;;;2.40;;
3000;SDS011;1510;51.072;6.678;2022-09-01T00:25:20;4.90;;;2.30;;
3000;SDS011;1510;51.072;6.678;2022-09-01T00:27:49;6.23;;;2.77;;
3000;SDS011;1510;51.072;6.678;2022-09-01T00:30:16;6.53;;;3.43;;
3000;SDS011;1510;51.072;6.678;2022-09-01T00:32:43;6.20;;;3.03;;
3000;SDS011;1510;51.072;6.678;2022-09-01T00:35:12;6.83;;;3.10;;
3000;SDS011;1510;51.072;6.678;2022-09-01T00:37:39;6.67;;;3.17;;
3000;SDS011;1510;51.072;6.678;2022-09-01T00:40:06;6.03;;;2.60;;
3000;SDS011;1510;51.072;6.678;2022-09-01T00:42:35;8.33;;;3.93;;
3000;SDS011;1510;51.072;6.678;2022-09-01T00:45:04;6.83;;;3.50;;
3000;SDS011;1510;51.072;6.678;2022-09-01T00:47:33;7.60;;;3.87;;
3000;SDS011;1510;51.072;6.678;2022-09-01T00:50:00;6.83;;;3.83;;
3000;SDS011;1510;51.072;6.678;2022-09-01T00:52:34;11.53;;;3.53;;
3000;SDS011;1510;51.072;6.678;2022-09-01T00:55:05;5.73;;;3.13;;
3000;SDS011;1510;51.072;6.678;2022-09-01T00:57:35;8.83;;;3.30;;
3000;SDS011;1510;51.072;6.678;2022-09-01T01:00:04;7.50;;;3.70;;
3000;SDS011;1510;51.072;6.678;2022-09-01T01:02:35;6.00;;;3.50;;
3000;SDS011;1510;51.072;6.678;2022-09-01T01:05:03;6.63;;;3.50;;
3000;SDS011;1510;51.072;6.678;2022-09-01T01:07:32;6.93;;;4.33;;
3000;SDS011;1510;51.072;6.678;2022-09-01T01:10:03;7.87;;;3.60;;
3000;SDS011;1510;51.072;6.678;2022-09-01T01:12:31;6.40;;;4.50;;
3000;SDS011;1510;51.072;6.678;2022-09-01T01:15:02;6.03;;;4.73;;
3000;SDS011;1510;51.072;6.678;2022-09-01T01:17:31;6.60;;;4.13;;
3000;SDS011;1510;51.072;6.678;2022-09-01T01:19:58;6.43;;;5.30;;
3000;SDS011;1510;51.072;6.678;2022-09-01T01:22:46;9.80;;;6.20;;
3000;SDS011;1510;51.072;6.678;2022-09-01T01:25:32;8.43;;;7.63;;
3000;SDS011;1510;51.072;6.678;2022-09-01T01:28:09;9.27;;;6.60;;
3000;SDS011;1510;51.072;6.678;2022-09-01T01:30:40;9.23;;;8.20;;
3000;SDS011;1510;51.072;6.678;2022-09-01T01:33:08;12.00;;;10.93;;
3000;SDS011;1510;51.072;6.678;2022-09-01T01:35:35;14.03;;;12.77;;
3000;SDS011;1510;51.072;6.678;2022-09-01T01:38:02;13.47;;;12.27;;
3000;SDS011;1510;51.072;6.678;2022-09-01T01:40:33;12.63;;;11.73;;
3000;SDS011;1510;51.072;6.678;2022-09-01T01:43:01;11.23;;;10.33;;
3000;SDS011;1510;51.072;6.678;2022-09-01T01:45:29;8.47;;;7.77;;
3000;SDS011;1510;51.072;6.678;2022-09-01T01:47:56;9.47;;;7.00;;
3000;SDS011;1510;51.072;6.678;2022-09-01T01:50:24;6.77;;;5.73;;
3000;SDS011;1510;51.072;6.678;2022-09-01T01:52:54;10.10;;;8.70;;
3000;SDS011;1510;51.072;6.678;2022-09-01T01:55:23;15.60;;;14.50;;
3000;SDS011;1510;51.072;6.678;2022-09-01T01:57:54;15.30;;;14.00;;
3000;SDS011;1510;51.072;6.678;2022-09-01T02:00:22;18.77;;;17.30;;
3000;SDS011;1510;51.072;6.678;2022-09-01T02:02:51;21.70;;;20.40;;
3000;SDS011;1510;51.072;6.678;2022-09-01T02:05:19;20.10;;;18.70;;
3000;SDS011;1510;51.072;6.678;2022-09-01T02:07:49;20.67;;;19.57;;
3000;SDS011;1510;51.072;6.678;2022-09-01T02:10:20;18.60;;;16.80;;
3000;SDS011;1510;51.072;6.678;2022-09-01T02:12:51;25.30;;;23.90;;
3000;SDS011;1510;51.072;6.678;2022-09-01T02:15:21;22.73;;;21.43;;
3000;SDS011;1510;51.072;6.678;2022-09-01T02:17:49;20.97;;;19.80;;
3000;SDS011;1510;51.072;6.678;2022-09-01T02:20:16;34.10;;;32.00;;
3000;SDS011;1510;51.072;6.678;2022-09-01T02:22:42;43.10;;;41.10;;
3000;SDS011;1510;51.072;6.678;2022-09-01T02:25:09;47.30;;;45.27;;
3000;SDS011;1510;51.072;6.678;2022-09-01T02:27:40;63.97;;;61.10;;
3000;SDS011;1510;51.072;6.678;2022-09-01T02:30:09;65.27;;;62.37;;
3000;SDS011;1510;51.072;6.678;2022-09-01T02:32:36;70.30;;;67.43;;
3000;SDS011;1510;51.072;6.678;2022-09-01T02:35:06;63.57;;;61.00;;
3000;SDS011;1510;51.072;6.678;2022-09-01T02:37:34;87.87;;;84.63;;
3000;SDS011;1510;51.072;6.678;2022-09-01T02:40:03;97.57;;;94.07;;
3000;SDS011;1510;51.072;6.678;2022-09-01T02:42:32;77.93;;;74.80;;
3000;SDS011;1510;51.072;6.678;2022-09-01T02:44:58;43.87;;;41.77;;
3000;SDS011;1510;51.072;6.678;2022-09-01T02:47:27;87.93;;;84.47;;
3000;SDS011;1510;51.072;6.678;2022-09-01T02:49:54;107.90;;;103.80;;
3000;SDS011;1510;51.072;6.678;2022-09-01T02:52:22;216.93;;;209.83;;
3000;SDS011;1510;51.072;6.678;2022-09-01T02:54:49;303.57;;;293.60;;
3000;SDS011;1510;51.072;6.678;2022-09-01T02:57:16;311.50;;;301.13;;
3000;SDS011;1510;51.072;6.678;2022-09-01T02:59:42;260.73;;;252.40;;
3000;SDS011;1510;51.072;6.678;2022-09-01T03:02:12;259.70;;;250.97;;
3000;SDS011;1510;51.072;6.678;2022-09-01T03:04:40;288.47;;;278.73;;
3000;SDS011;1510;51.072;6.678;2022-09-01T03:07:07;268.40;;;259.17;;
3000;SDS011;1510;51.072;6.678;2022-09-01T03:09:34;194.43;;;187.80;;
3000;SDS011;1510;51.072;6.678;2022-09-01T03:12:05;126.87;;;122.37;;
3000;SDS011;1510;51.072;6.678;2022-09-01T03:14:32;108.20;;;104.20;;
3000;SDS011;1510;51.072;6.678;2022-09-01T03:16:59;90.00;;;86.20;;
3000;SDS011;1510;51.072;6.678;2022-09-01T03:19:25;93.77;;;90.30;;
3000;SDS011;1510;51.072;6.678;2022-09-01T03:22:07;82.93;;;79.73;;
3000;SDS011;1510;51.072;6.678;2022-09-01T03:24:34;89.70;;;85.90;;
3000;SDS011;1510;51.072;6.678;2022-09-01T03:27:01;114.37;;;110.27;;
3000;SDS011;1510;51.072;6.678;2022-09-01T03:29:27;89.33;;;86.00;;
3000;SDS011;1510;51.072;6.678;2022-09-01T03:31:54;100.17;;;95.27;;
3000;SDS011;1510;51.072;6.678;2022-09-01T03:34:21;51.33;;;48.97;;
3000;SDS011;1510;51.072;6.678;2022-09-01T03:36:48;32.90;;;31.30;;
3000;SDS011;1510;51.072;6.678;2022-09-01T03:39:16;34.17;;;32.40;;
3000;SDS011;1510;51.072;6.678;2022-09-01T03:41:44;40.23;;;38.40;;
3000;SDS011;1510;51.072;6.678;2022-09-01T03:44:13;40.83;;;38.43;;
3000;SDS011;1510;51.072;6.678;2022-09-01T03:46:40;52.40;;;50.20;;
3000;SDS011;1510;51.072;6.678;2022-09-01T03:49:08;51.23;;;49.00;;
3000;SDS011;1510;51.072;6.678;2022-09-01T03:53:01;39.50;;;37.50;;
3000;SDS011;1510;51.072;6.678;2022-09-01T03:55:07;43.80;;;41.90;;
3000;SDS011;1510;51.072;6.678;2022-09-01T03:57:34;48.07;;;46.07;;
3000;SDS011;1510;51.072;6.678;2022-09-01T04:00:06;46.73;;;44.63;;
3000;SDS011;1510;51.072;6.678;2022-09-01T04:02:47;47.90;;;45.90;;
3000;SDS011;1510;51.072;6.678;2022-09-01T04:05:15;69.93;;;67.13;;
3000;SDS011;1510;51.072;6.678;2022-09-01T04:07:42;43.67;;;41.57;;
3000;SDS011;1510;51.072;6.678;2022-09-01T04:10:14;56.30;;;53.73;;
3000;SDS011;1510;51.072;6.678;2022-09-01T04:12:41;92.30;;;88.83;;
3000;SDS011;1510;51.072;6.678;2022-09-01T04:15:08;131.83;;;127.13;;
3000;SDS011;1510;51.072;6.678;2022-09-01T04:17:36;164.63;;;159.03;;
3000;SDS011;1510;51.072;6.678;2022-09-01T04:20:20;253.20;;;245.10;;
3000;SDS011;1510;51.072;6.678;2022-09-01T04:22:47;270.10;;;261.13;;
3000;SDS011;1510;51.072;6.678;2022-09-01T04:25:18;279.23;;;269.47;;
3000;SDS011;1510;51.072;6.678;2022-09-01T04:27:51;284.47;;;274.53;;
3000;SDS011;1510;51.072;6.678;2022-09-01T04:30:19;288.83;;;278.80;;
3000;SDS011;1510;51.072;6.678;2022-09-01T04:32:57;323.93;;;311.93;;
3000;SDS011;1510;51.072;6.678;2022-09-01T04:35:24;339.20;;;326.80;;
3000;SDS011;1510;51.072;6.678;2022-09-01T04:37:55;402.27;;;387.47;;
3000;SDS011;1510;51.072;6.678;2022-09-01T04:40:23;384.67;;;370.27;;
3000;SDS011;1510;51.072;6.678;2022-09-01T04:42:50;439.70;;;421.77;;
3000;SDS011;1510;51.072;6.678;2022-09-01T04:45:17;484.97;;;464.60;;
3000;SDS011;1510;51.072;6.678;2022-09-01T04:47:46;706.90;;;671.23;;
3000;SDS011;1510;51.072;6.678;2022-09-01T04:50:13;746.83;;;707.43;;
3000;SDS011;1510;51.072;6.678;2022-09-01T04:52:41;741.93;;;703.57;;
3000;SDS011;1510;51.072;6.678;2022-09-01T04:55:09;745.97;;;706.93;;
3000;SDS011;1510;51.072;6.678;2022-09-01T04:57:42;625.13;;;595.73;;
3000;SDS011;1510;51.072;6.678;2022-09-01T05:00:12;572.00;;;546.33;;
3000;SDS011;1510;51.072;6.678;2022-09-01T05:02:46;468.40;;;448.97;;
3000;SDS011;1510;51.072;6.678;2022-09-01T05:05:15;429.57;;;412.27;;
3000;SDS011;1510;51.072;6.678;2022-09-01T05:07:41;394.53;;;378.63;;
3000;SDS011;1510;51.072;6.678;2022-09-01T05:10:14;376.63;;;362.43;;
3000;SDS011;1510;51.072;6.678;2022-09-01T05:12:49;432.70;;;414.43;;
3000;SDS011;1510;51.072;6.678;2022-09-01T05:15:41;444.80;;;426.80;;
3000;SDS011;1510;51.072;6.678;2022-09-01T05:18:39;391.37;;;376.27;;
3000;SDS011;1510;51.072;6.678;2022-09-01T05:21:09;360.87;;;347.23;;
3000;SDS011;1510;51.072;6.678;2022-09-01T05:23:36;373.37;;;358.83;;
3000;SDS011;1510;51.072;6.678;2022-09-01T05:26:04;362.77;;;349.10;;
3000;SDS011;1510;51.072;6.678;2022-09-01T05:28:40;330.63;;;318.63;;
3000;SDS011;1510;51.072;6.678;2022-09-01T05:31:07;309.67;;;298.77;;
3000;SDS011;1510;51.072;6.678;2022-09-01T05:33:34;278.10;;;268.57;;
3000;SDS011;1510;51.072;6.678;2022-09-01T05:36:03;251.63;;;243.23;;
3000;SDS011;1510;51.072;6.678;2022-09-01T05:38:36;242.70;;;234.60;;
3000;SDS011;1510;51.072;6.678;2022-09-01T05:41:06;272.20;;;263.00;;
3000;SDS011;1510;51.072;6.678;2022-09-01T05:43:35;342.27;;;329.53;;
3000;SDS011;1510;51.072;6.678;2022-09-01T05:46:06;329.33;;;317.40;;
3000;SDS011;1510;51.072;6.678;2022-09-01T05:48:35;334.70;;;322.57;;
3000;SDS011;1510;51.072;6.678;2022-09-01T05:51:04;315.77;;;304.57;;
3000;SDS011;1510;51.072;6.678;2022-09-01T05:53:31;386.93;;;371.90;;
3000;SDS011;1510;51.072;6.678;2022-09-01T05:55:59;423.20;;;406.77;;
3000;SDS011;1510;51.072;6.678;2022-09-01T05:58:31;367.70;;;354.13;;
3000;SDS011;1510;51.072;6.678;2022-09-01T06:00:59;323.40;;;311.97;;
3000;SDS011;1510;51.072;6.678;2022-09-01T06:03:42;370.43;;;356.47;;
3000;SDS011;1510;51.072;6.678;2022-09-01T06:06:09;414.63;;;398.17;;
3000;SDS011;1510;51.072;6.678;2022-09-01T06:08:36;364.40;;;350.43;;
3000;SDS011;1510;51.072;6.678;2022-09-01T06:11:07;395.37;;;380.07;;
3000;SDS011;1510;51.072;6.678;2022-09-01T06:13:36;385.13;;;370.27;;
3000;SDS011;1510;51.072;6.678;2022-09-01T06:16:04;347.27;;;334.33;;
3000;SDS011;1510;51.072;6.678;2022-09-01T06:18:32;370.30;;;356.70;;
3000;SDS011;1510;51.072;6.678;2022-09-01T06:21:02;329.30;;;317.47;;
3000;SDS011;1510;51.072;6.678;2022-09-01T06:23:29;164.33;;;158.33;;
3000;SDS011;1510;51.072;6.678;2022-09-01T06:25:57;136.47;;;131.30;;
3000;SDS011;1510;51.072;6.678;2022-09-01T06:28:25;79.80;;;76.50;;
3000;SDS011;1510;51.072;6.678;2022-09-01T06:30:53;52.57;;;49.73;;
3000;SDS011;1510;51.072;6.678;2022-09-01T06:33:21;43.97;;;41.33;;
3000;SDS011;1510;51.072;6.678;2022-09-01T06:35:51;22.57;;;21.10;;
3000;SDS011;1510;51.072;6.678;2022-09-01T06:38:19;20.07;;;18.57;;
3000;SDS011;1510;51.072;6.678;2022-09-01T06:40:46;13.07;;;11.93;;
3000;SDS011;1510;51.072;6.678;2022-09-01T06:43:13;10.63;;;9.50;;
3000;SDS011;1510;51.072;6.678;2022-09-01T06:48:39;8.17;;;5.90;;
3000;SDS011;1510;51.072;6.678;2022-09-01T06:51:15;15.57;;;5.33;;
3000;SDS011;1510;51.072;6.678;2022-09-01T06:53:45;9.07;;;4.47;;
3000;SDS011;1510;51.072;6.678;2022-09-01T06:56:20;5.30;;;2.73;;
3000;SDS011;1510;51.072;6.678;2022-09-01T06:58:50;7.60;;;3.13;;
3000;SDS011;1510;51.072;6.678;2022-09-01T07:01:23;5.80;;;2.43;;
3000;SDS011;1510;51.072;6.678;2022-09-01T07:04:03;7.70;;;3.23;;
3000;SDS011;1510;51.072;6.678;2022-09-01T07:06:31;5.77;;;3.07;;
3000;SDS011;1510;51.072;6.678;2022-09-01T07:08:59;5.63;;;2.70;;
3000;SDS011;1510;51.072;6.678;2022-09-01T07:11:27;4.70;;;2.13;;
3000;SDS011;1510;51.072;6.678;2022-09-01T07:13:57;6.33;;;2.33;;
3000;SDS011;1510;51.072;6.678;2022-09-01T07:16:26;5.83;;;2.73;;
3000;SDS011;1510;51.072;6.678;2022-09-01T07:18:55;4.67;;;2.20;;
3000;SDS011;1510;51.072;6.678;2022-09-01T07:21:24;5.30;;;2.30;;
3000;SDS011;1510;51.072;6.678;2022-09-01T07:23:59;6.20;;;2.03;;
3000;SDS011;1510;51.072;6.678;2022-09-01T07:26:28;9.30;;;2.63;;
3000;SDS011;1510;51.072;6.678;2022-09-01T07:28:56;6.07;;;2.47;;
3000;SDS011;1510;51.072;6.678;2022-09-01T07:31:24;6.13;;;2.47;;
3000;SDS011;1510;51.072;6.678;2022-09-01T07:33:53;5.03;;;2.07;;
3000;SDS011;1510;51.072;6.678;2022-09-01T07:36:23;9.03;;;2.17;;
3000;SDS011;1510;51.072;6.678;2022-09-01T07:38:50;5.03;;;2.00;;
3000;SDS011;1510;51.072;6.678;2022-09-01T07:41:20;5.77;;;2.27;;
3000;SDS011;1510;51.072;6.678;2022-09-01T07:44:05;7.73;;;2.20;;
3000;SDS011;1510;51.072;6.678;2022-09-01T07:46:34;5.30;;;2.00;;
3000;SDS011;1510;51.072;6.678;2022-09-01T07:49:01;5.57;;;1.97;;
3000;SDS011;1510;51.072;6.678;2022-09-01T07:51:30;5.97;;;1.80;;
3000;SDS011;1510;51.072;6.678;2022-09-01T07:53:57;6.60;;;2.37;;
3000;SDS011;1510;51.072;6.678;2022-09-01T07:56:27;6.53;;;2.50;;
3000;SDS011;1510;51.072;6.678;2022-09-01T07:58:55;4.73;;;1.97;;
3000;SDS011;1510;51.072;6.678;2022-09-01T08:01:24;6.80;;;1.73;;
3000;SDS011;1510;51.072;6.678;2022-09-01T08:03:53;6.23;;;1.73;;
3000;SDS011;1510;51.072;6.678;2022-09-01T08:06:22;5.90;;;1.87;;
3000;SDS011;1510;51.072;6.678;2022-09-01T08:08:50;7.80;;;2.27;;
3000;SDS011;1510;51.072;6.678;2022-09-01T08:11:19;5.93;;;2.23;;
3000;SDS011;1510;51.072;6.678;2022-09-01T08:13:50;8.40;;;4.00;;
3000;SDS011;1510;51.072;6.678;2022-09-01T08:16:17;7.30;;;2.00;;
3000;SDS011;1510;51.072;6.678;2022-09-01T08:18:46;5.40;;;2.30;;
3000;SDS011;1510;51.072;6.678;2022-09-01T08:21:14;4.73;;;1.90;;
3000;SDS011;1510;51.072;6.678;2022-09-01T08:23:41;10.27;;;2.20;;
3000;SDS011;1510;51.072;6.678;2022-09-01T08:26:09;5.10;;;1.90;;
3000;SDS011;1510;51.072;6.678;2022-09-01T08:28:37;6.73;;;1.70;;
3000;SDS011;1510;51.072;6.678;2022-09-01T08:31:07;4.83;;;1.80;;
3000;SDS011;1510;51.072;6.678;2022-09-01T08:33:34;5.67;;;2.33;;
3000;SDS011;1510;51.072;6.678;2022-09-01T08:36:02;9.37;;;2.10;;
3000;SDS011;1510;51.072;6.678;2022-09-01T08:38:29;5.83;;;1.93;;
3000;SDS011;1510;51.072;6.678;2022-09-01T08:40:56;8.90;;;2.30;;
3000;SDS011;1510;51.072;6.678;2022-09-01T08:43:28;6.50;;;1.70;;
3000;SDS011;1510;51.072;6.678;2022-09-01T08:46:07;7.00;;;1.87;;
3000;SDS011;1510;51.072;6.678;2022-09-01T08:48:40;6.40;;;2.03;;
3000;SDS011;1510;51.072;6.678;2022-09-01T08:51:11;4.93;;;1.83;;
3000;SDS011;1510;51.072;6.678;2022-09-01T08:53:44;7.27;;;1.47;;
3000;SDS011;1510;51.072;6.678;2022-09-01T08:56:14;6.60;;;1.83;;
3000;SDS011;1510;51.072;6.678;2022-09-01T08:58:43;6.33;;;1.50;;
3000;SDS011;1510;51.072;6.678;2022-09-01T09:01:14;5.30;;;1.50;;
3000;SDS011;1510;51.072;6.678;2022-09-01T09:03:56;5.07;;;1.40;;
3000;SDS011;1510;51.072;6.678;2022-09-01T09:06:40;4.13;;;1.37;;
3000;SDS011;1510;51.072;6.678;2022-09-01T09:09:13;4.87;;;1.40;;
3000;SDS011;1510;51.072;6.678;2022-09-01T09:11:43;4.83;;;1.20;;
3000;SDS011;1510;51.072;6.678;2022-09-01T09:14:50;4.90;;;1.40;;
3000;SDS011;1510;51.072;6.678;2022-09-01T09:17:33;4.33;;;1.40;;
3000;SDS011;1510;51.072;6.678;2022-09-01T09:20:08;5.30;;;1.70;;
3000;SDS011;1510;51.072;6.678;2022-09-01T09:22:38;5.40;;;1.53;;
3000;SDS011;1510;51.072;6.678;2022-09-01T09:28:06;5.07;;;1.30;;
3000;SDS011;1510;51.072;6.678;2022-09-01T09:30:53;5.90;;;1.57;;
3000;SDS011;1510;51.072;6.678;2022-09-01T09:34:14;4.93;;;1.33;;
3000;SDS011;1510;51.072;6.678;2022-09-01T09:37:15;4.87;;;1.30;;
3000;SDS011;1510;51.072;6.678;2022-09-01T09:40:04;4.03;;;1.27;;
3000;SDS011;1510;51.072;6.678;2022-09-01T09:43:10;4.43;;;1.30;;
3000;SDS011;1510;51.072;6.678;2022-09-01T09:46:19;5.27;;;1.20;;
3000;SDS011;1510;51.072;6.678;2022-09-01T09:52:28;5.90;;;1.37;;
3000;SDS011;1510;51.072;6.678;2022-09-01T09:55:05;5.73;;;1.20;;
3000;SDS011;1510;51.072;6.678;2022-09-01T10:04:42;4.87;;;1.20;;
3000;SDS011;1510;51.072;6.678;2022-09-01T10:17:33;4.37;;;1.50;;
3000;SDS011;1510;51.072;6.678;2022-09-01T10:20:16;4.43;;;1.30;;
3000;SDS011;1510;51.072;6.678;2022-09-01T10:22:46;4.00;;;1.17;;
3000;SDS011;1510;51.072;6.678;2022-09-01T10:25:15;4.30;;;1.40;;
3000;SDS011;1510;51.072;6.678;2022-09-01T10:27:43;5.23;;;1.20;;
3000;SDS011;1510;51.072;6.678;2022-09-01T10:30:14;5.53;;;1.10;;
3000;SDS011;1510;51.072;6.678;2022-09-01T10:32:45;5.87;;;1.10;;
3000;SDS011;1510;51.072;6.678;2022-09-01T10:35:18;6.10;;;1.30;;
3000;SDS011;1510;51.072;6.678;2022-09-01T10:37:48;6.00;;;1.03;;
3000;SDS011;1510;51.072;6.678;2022-09-01T10:40:18;4.57;;;1.30;;
3000;SDS011;1510;51.072;6.678;2022-09-01T10:45:52;7.43;;;2.73;;
3000;SDS011;1510;51.072;6.678;2022-09-01T10:48:23;5.60;;;1.20;;
3000;SDS011;1510;51.072;6.678;2022-09-01T10:50:55;4.20;;;1.30;;
3000;SDS011;1510;51.072;6.678;2022-09-01T10:53:59;6.73;;;1.30;;
3000;SDS011;1510;51.072;6.678;2022-09-01T10:56:35;4.00;;;1.00;;
3000;SDS011;1510;51.072;6.678;2022-09-01T10:59:05;4.30;;;1.17;;
3000;SDS011;1510;51.072;6.678;2022-09-01T11:07:37;5.77;;;1.50;;
3000;SDS011;1510;51.072;6.678;2022-09-01T11:10:13;4.97;;;1.37;;
3000;SDS011;1510;51.072;6.678;2022-09-01T11:12:58;4.23;;;1.10;;
3000;SDS011;1510;51.072;6.678;2022-09-01T11:15:41;8.13;;;1.20;;
3000;SDS011;1510;51.072;6.678;2022-09-01T11:18:10;4.97;;;0.90;;
3000;SDS011;1510;51.072;6.678;2022-09-01T11:20:41;5.30;;;1.20;;
3000;SDS011;1510;51.072;6.678;2022-09-01T11:23:09;5.17;;;1.30;;
3000;SDS011;1510;51.072;6.678;2022-09-01T11:25:47;5.60;;;1.50;;
3000;SDS011;1510;51.072;6.678;2022-09-01T11:31:18;6.53;;;1.50;;
3000;SDS011;1510;51.072;6.678;2022-09-01T11:34:03;6.50;;;1.33;;
3000;SDS011;1510;51.072;6.678;2022-09-01T11:36:45;4.30;;;1.33;;
3000;SDS011;1510;51.072;6.678;2022-09-01T11:39:29;6.20;;;1.43;;
3000;SDS011;1510;51.072;6.678;2022-09-01T11:42:08;4.67;;;1.60;;
3000;SDS011;1510;51.072;6.678;2022-09-01T11:44:47;6.00;;;1.50;;
3000;SDS011;1510;51.072;6.678;2022-09-01T11:47:35;4.53;;;1.43;;
3000;SDS011;1510;51.072;6.678;2022-09-01T11:50:05;5.30;;;1.43;;
3000;SDS011;1510;51.072;6.678;2022-09-01T11:52:42;5.50;;;1.47;;
3000;SDS011;1510;51.072;6.678;2022-09-01T11:55:27;7.63;;;1.60;;
3000;SDS011;1510;51.072;6.678;2022-09-01T11:57:56;4.80;;;1.60;;
3000;SDS011;1510;51.072;6.678;2022-09-01T12:00:27;4.10;;;1.33;;
3000;SDS011;1510;51.072;6.678;2022-09-01T12:02:55;6.97;;;1.50;;
3000;SDS011;1510;51.072;6.678;2022-09-01T12:05:28;5.63;;;1.30;;
3000;SDS011;1510;51.072;6.678;2022-09-01T12:07:57;4.50;;;1.50;;
3000;SDS011;1510;51.072;6.678;2022-09-01T12:10:28;9.73;;;2.30;;
3000;SDS011;1510;51.072;6.678;2022-09-01T12:13:03;6.10;;;1.37;;
3000;SDS011;1510;51.072;6.678;2022-09-01T12:15:32;4.47;;;1.43;;
3000;SDS011;1510;51.072;6.678;2022-09-01T12:18:09;4.50;;;1.50;;
3000;SDS011;1510;51.072;6.678;2022-09-01T12:20:43;4.60;;;1.63;;
3000;SDS011;1510;51.072;6.678;2022-09-01T12:23:16;4.27;;;1.40;;
3000;SDS011;1510;51.072;6.678;2022-09-01T12:25:48;4.57;;;1.67;;
3000;SDS011;1510;51.072;6.678;2022-09-01T12:28:18;5.30;;;1.67;;
3000;SDS011;1510;51.072;6.678;2022-09-01T12:30:45;4.87;;;1.93;;
3000;SDS011;1510;51.072;6.678;2022-09-01T12:33:12;5.70;;;1.93;;
3000;SDS011;1510;51.072;6.678;2022-09-01T12:35:39;6.60;;;1.70;;
3000;SDS011;1510;51.072;6.678;2022-09-01T12:38:20;5.80;;;1.87;;
3000;SDS011;1510;51.072;6.678;2022-09-01T12:40:49;4.30;;;1.53;;
3000;SDS011;1510;51.072;6.678;2022-09-01T12:43:33;5.53;;;1.60;;
3000;SDS011;1510;51.072;6.678;2022-09-01T12:46:01;4.40;;;1.80;;
3000;SDS011;1510;51.072;6.678;2022-09-01T12:48:31;4.40;;;1.50;;
3000;SDS011;1510;51.072;6.678;2022-09-01T12:50:59;4.67;;;1.53;;
3000;SDS011;1510;51.072;6.678;2022-09-01T12:53:48;4.63;;;1.50;;
3000;SDS011;1510;51.072;6.678;2022-09-01T12:56:22;5.00;;;1.77;;
3000;SDS011;1510;51.072;6.678;2022-09-01T13:05:23;4.87;;;1.97;;
3000;SDS011;1510;51.072;6.678;2022-09-01T13:08:03;4.60;;;1.70;;
3000;SDS011;1510;51.072;6.678;2022-09-01T13:10:40;5.97;;;1.97;;
3000;SDS011;1510;51.072;6.678;2022-09-01T13:13:15;4.80;;;1.60;;
3000;SDS011;1510;51.072;6.678;2022-09-01T13:15:58;5.40;;;1.53;;
3000;SDS011;1510;51.072;6.678;2022-09-01T13:18:55;9.70;;;1.80;;
3000;SDS011;1510;51.072;6.678;2022-09-01T13:21:52;26.53;;;3.30;;
3000;SDS011;1510;51.072;6.678;2022-09-01T13:24:39;6.43;;;2.10;;
3000;SDS011;1510;51.072;6.678;2022-09-01T13:27:38;8.93;;;2.10;;
3000;SDS011;1510;51.072;6.678;2022-09-01T13:30:08;5.83;;;1.63;;
3000;SDS011;1510;51.072;6.678;2022-09-01T13:32:38;5.00;;;1.60;;
3000;SDS011;1510;51.072;6.678;2022-09-01T13:35:05;4.87;;;1.90;;
3000;SDS011;1510;51.072;6.678;2022-09-01T13:37:33;5.00;;;1.70;;
3000;SDS011;1510;51.072;6.678;2022-09-01T13:40:02;6.33;;;1.60;;
3000;SDS011;1510;51.072;6.678;2022-09-01T13:45:36;5.10;;;1.63;;
3000;SDS011;1510;51.072;6.678;2022-09-01T13:48:08;4.80;;;1.60;;
3000;SDS011;1510;51.072;6.678;2022-09-01T13:50:37;6.83;;;1.87;;
3000;SDS011;1510;51.072;6.678;2022-09-01T13:53:12;4.20;;;1.40;;
3000;SDS011;1510;51.072;6.678;2022-09-01T13:56:01;6.23;;;1.80;;
3000;SDS011;1510;51.072;6.678;2022-09-01T13:58:44;7.47;;;1.63;;
3000;SDS011;1510;51.072;6.678;2022-09-01T14:01:23;5.30;;;2.00;;
3000;SDS011;1510;51.072;6.678;2022-09-01T14:04:00;4.57;;;1.80;;
3000;SDS011;1510;51.072;6.678;2022-09-01T14:06:55;11.17;;;1.97;;
3000;SDS011;1510;51.072;6.678;2022-09-01T14:09:25;7.60;;;2.23;;
3000;SDS011;1510;51.072;6.678;2022-09-01T14:11:53;4.60;;;1.70;;
3000;SDS011;1510;51.072;6.678;2022-09-01T14:14:23;4.70;;;1.90;;
3000;SDS011;1510;51.072;6.678;2022-09-01T14:16:52;4.90;;;2.00;;
3000;SDS011;1510;51.072;6.678;2022-09-01T14:19:24;6.20;;;2.20;;
3000;SDS011;1510;51.072;6.678;2022-09-01T14:21:56;4.60;;;1.90;;
3000;SDS011;1510;51.072;6.678;2022-09-01T14:24:33;4.90;;;2.27;;
3000;SDS011;1510;51.072;6.678;2022-09-01T14:27:09;7.20;;;2.40;;
3000;SDS011;1510;51.072;6.678;2022-09-01T14:29:36;5.90;;;2.13;;
3000;SDS011;1510;51.072;6.678;2022-09-01T14:32:03;5.90;;;2.20;;
3000;SDS011;1510;51.072;6.678;2022-09-01T14:34:33;6.03;;;2.20;;
3000;SDS011;1510;51.072;6.678;2022-09-01T14:37:22;4.40;;;1.80;;
3000;SDS011;1510;51.072;6.678;2022-09-01T14:39:49;4.97;;;2.33;;
3000;SDS011;1510;51.072;6.678;2022-09-01T14:42:16;5.67;;;2.10;;
3000;SDS011;1510;51.072;6.678;2022-09-01T14:44:43;7.23;;;2.20;;
3000;SDS011;1510;51.072;6.678;2022-09-01T14:47:10;6.93;;;2.27;;
3000;SDS011;1510;51.072;6.678;2022-09-01T14:49:39;5.50;;;2.30;;
3000;SDS011;1510;51.072;6.678;2022-09-01T14:52:07;5.47;;;2.47;;
3000;SDS011;1510;51.072;6.678;2022-09-01T14:54:34;5.77;;;2.20;;
3000;SDS011;1510;51.072;6.678;2022-09-01T14:57:01;8.90;;;2.67;;
3000;SDS011;1510;51.072;6.678;2022-09-01T14:59:29;4.83;;;2.23;;
3000;SDS011;1510;51.072;6.678;2022-09-01T15:01:55;5.40;;;2.30;;
3000;SDS011;1510;51.072;6.678;2022-09-01T15:04:22;5.23;;;1.80;;
3000;SDS011;1510;51.072;6.678;2022-09-01T15:06:51;5.63;;;2.37;;
3000;SDS011;1510;51.072;6.678;2022-09-01T15:09:18;5.57;;;2.20;;
3000;SDS011;1510;51.072;6.678;2022-09-01T15:11:52;5.33;;;2.23;;
3000;SDS011;1510;51.072;6.678;2022-09-01T15:14:19;5.77;;;2.23;;
3000;SDS011;1510;51.072;6.678;2022-09-01T15:16:45;6.57;;;2.00;;
3000;SDS011;1510;51.072;6.678;2022-09-01T15:19:13;5.23;;;2.30;;
3000;SDS011;1510;51.072;6.678;2022-09-01T15:21:41;6.40;;;2.37;;
3000;SDS011;1510;51.072;6.678;2022-09-01T15:24:11;5.93;;;2.80;;
3000;SDS011;1510;51.072;6.678;2022-09-01T15:26:39;5.43;;;2.47;;
3000;SDS011;1510;51.072;6.678;2022-09-01T15:32:18;5.00;;;2.17;;
3000;SDS011;1510;51.072;6.678;2022-09-01T15:40:32;8.43;;;2.70;;
3000;SDS011;1510;51.072;6.678;2022-09-01T15:42:59;5.03;;;2.13;;
3000;SDS011;1510;51.072;6.678;2022-09-01T15:45:26;4.83;;;2.20;;
3000;SDS011;1510;51.072;6.678;2022-09-01T15:47:54;6.23;;;2.63;;
3000;SDS011;1510;51.072;6.678;2022-09-01T15:50:21;5.90;;;3.07;;
3000;SDS011;1510;51.072;6.678;2022-09-01T15:52:50;6.50;;;2.50;;
3000;SDS011;1510;51.072;6.678;2022-09-01T15:55:19;5.57;;;2.20;;
3000;SDS011;1510;51.072;6.678;2022-09-01T15:57:48;7.40;;;2.90;;
3000;SDS011;1510;51.072;6.678;2022-09-01T16:00:16;6.67;;;2.40;;
3000;SDS011;1510;51.072;6.678;2022-09-01T16:02:43;5.10;;;2.37;;
3000;SDS011;1510;51.072;6.678;2022-09-01T16:05:10;10.73;;;2.30;;
3000;SDS011;1510;51.072;6.678;2022-09-01T16:07:37;5.10;;;2.60;;
3000;SDS011;1510;51.072;6.678;2022-09-01T16:10:05;7.03;;;2.20;;
3000;SDS011;1510;51.072;6.678;2022-09-01T16:12:37;5.27;;;2.17;;
3000;SDS011;1510;51.072;6.678;2022-09-01T16:15:09;5.87;;;2.20;;
3000;SDS011;1510;51.072;6.678;2022-09-01T16:17:41;4.97;;;2.10;;
3000;SDS011;1510;51.072;6.678;2022-09-01T16:20:24;5.13;;;2.40;;
3000;SDS011;1510;51.072;6.678;2022-09-01T16:22:58;6.77;;;2.70;;
3000;SDS011;1510;51.072;6.678;2022-09-01T16:25:37;7.23;;;2.10;;